Time;durP1;ratioP1;P1;durP2;ratioP2;P2;SDS_P1;SDS_P2;PMS_P1;PMS_P2;Temp;Humidity;BMP_temperature;BMP_pressure;BME280_temperature;BME280_humidity;BME280_pressure;Samples;Min_cycle;Max_cycle;Signal;HPM_P1;HPM_P2
2022/08/23 00:01:48;;;;;;;30.53;28.83;;;18.80;72.80;;;;;;5003428;28;20481;-66
2022/08/23 00:04:18;;;;;;;29.97;28.47;;;18.80;72.90;;;;;;5005813;28;20464;-66
2022/08/23 00:06:48;;;;;;;31.20;29.40;;;18.70;72.90;;;;;;5009322;28;20464;-66
2022/08/23 00:09:15;;;;;;;31.00;29.27;;;18.70;72.50;;;;;;5005616;28;20472;-66
2022/08/23 00:11:46;;;;;;;31.20;29.70;;;18.70;72.30;;;;;;5009243;28;20521;-66
2022/08/23 00:14:16;;;;;;;33.87;32.17;;;18.80;72.20;;;;;;5011262;28;20877;-66
2022/08/23 00:16:44;;;;;;;30.90;29.40;;;18.80;72.30;;;;;;5007681;28;20564;-66
2022/08/23 00:19:15;;;;;;;30.90;29.17;;;18.70;72.30;;;;;;5007272;28;20545;-66
2022/08/23 00:21:43;;;;;;;30.63;29.13;;;18.70;72.50;;;;;;5008183;28;21222;-66
2022/08/23 00:24:13;;;;;;;31.33;29.73;;;18.60;72.70;;;;;;5000863;28;20553;-66
2022/08/23 00:26:52;;;;;;;33.40;31.43;;;18.60;72.80;;;;;;5010763;28;20533;-67
2022/08/23 00:29:19;;;;;;;31.37;29.77;;;18.50;73.00;;;;;;5005862;28;20475;-66
2022/08/23 00:31:47;;;;;;;30.07;28.57;;;18.50;72.90;;;;;;5007417;28;20512;-66
2022/08/23 00:34:14;;;;;;;31.50;29.80;;;18.50;72.90;;;;;;5006729;28;20457;-65
2022/08/23 00:36:41;;;;;;;32.60;30.90;;;18.50;73.00;;;;;;5007238;28;20461;-66
2022/08/23 00:39:08;;;;;;;32.03;30.27;;;18.40;73.10;;;;;;5002571;28;20480;-66
2022/08/23 00:41:37;;;;;;;30.43;28.80;;;18.40;73.40;;;;;;5003153;28;20593;-66
2022/08/23 00:49:39;;;;;;;32.43;30.63;;;18.30;73.50;;;;;;5007162;28;20959;-66
2022/08/23 00:52:13;;;;;;;31.57;30.07;;;18.30;73.30;;;;;;5008879;28;21110;-66
2022/08/23 00:54:42;;;;;;;32.10;30.60;;;18.30;73.30;;;;;;5005134;28;21035;-66
2022/08/23 00:57:16;;;;;;;30.97;29.47;;;18.30;73.30;;;;;;5007989;28;20470;-69
2022/08/23 00:59:43;;;;;;;32.30;30.40;;;18.20;73.40;;;;;;5008560;28;20508;-68
2022/08/23 01:02:10;;;;;;;32.03;30.43;;;18.20;73.50;;;;;;5008765;28;20603;-68
2022/08/23 01:04:43;;;;;;;31.73;29.90;;;18.20;73.50;;;;;;5003862;28;20454;-67
2022/08/23 01:07:15;;;;;;;29.87;28.37;;;18.20;73.30;;;;;;5008916;28;20934;-68
2022/08/23 01:09:44;;;;;;;29.70;28.20;;;18.20;73.00;;;;;;5005498;28;20999;-71
2022/08/23 01:12:18;;;;;;;31.83;30.13;;;18.20;73.20;;;;;;5006494;28;20486;-68
2022/08/23 01:14:50;;;;;;;31.87;30.17;;;18.20;73.10;;;;;;5004152;28;20458;-68
2022/08/23 01:17:22;;;;;;;34.90;32.83;;;18.10;73.10;;;;;;5009742;28;20960;-68
2022/08/23 01:19:57;;;;;;;31.70;30.10;;;18.10;73.10;;;;;;4998344;28;20489;-69
2022/08/23 01:22:29;;;;;;;32.13;30.50;;;18.10;73.00;;;;;;5010125;28;20568;-70
2022/08/23 01:24:59;;;;;;;31.80;30.20;;;18.10;73.10;;;;;;5003133;28;20536;-68
2022/08/23 01:27:26;;;;;;;33.10;31.60;;;18.10;72.90;;;;;;5007631;28;20471;-71
2022/08/23 01:29:53;;;;;;;32.13;30.57;;;18.10;72.80;;;;;;5004820;28;20458;-69
2022/08/23 01:32:21;;;;;;;33.33;31.67;;;18.00;72.80;;;;;;5010657;28;20891;-69
2022/08/23 01:34:48;;;;;;;34.83;33.23;;;18.00;73.10;;;;;;5002943;28;20463;-68
2022/08/23 01:37:15;;;;;;;33.20;31.57;;;18.00;73.00;;;;;;5007264;28;20592;-69
2022/08/23 01:39:42;;;;;;;31.77;30.27;;;18.00;73.30;;;;;;5006645;28;20449;-68
2022/08/23 01:42:11;;;;;;;32.03;30.43;;;17.90;73.50;;;;;;5006749;28;21359;-68
2022/08/23 01:44:38;;;;;;;31.80;30.20;;;17.90;73.50;;;;;;5008837;28;20458;-68
2022/08/23 01:47:06;;;;;;;32.67;31.10;;;18.00;73.30;;;;;;5006900;28;20458;-68
2022/08/23 01:49:33;;;;;;;34.17;32.57;;;18.00;73.30;;;;;;5006753;28;20456;-69
2022/08/23 01:52:00;;;;;;;33.10;31.50;;;17.90;73.50;;;;;;5006077;28;20476;-69
2022/08/23 01:54:28;;;;;;;32.23;30.60;;;17.80;73.90;;;;;;5008045;28;20573;-68
2022/08/23 01:56:55;;;;;;;32.83;30.63;;;17.80;73.90;;;;;;5006467;28;20862;-68
2022/08/23 01:59:24;;;;;;;31.60;29.90;;;17.70;74.30;;;;;;5003125;28;21321;-68
2022/08/23 02:01:51;;;;;;;30.83;29.33;;;17.70;74.40;;;;;;5004989;28;21237;-69
2022/08/23 02:04:18;;;;;;;30.67;28.83;;;17.70;74.50;;;;;;5007620;28;20578;-68
2022/08/23 02:06:45;;;;;;;34.03;32.43;;;17.70;74.40;;;;;;5002870;28;20942;-69
2022/08/23 02:09:12;;;;;;;34.43;32.63;;;17.70;74.20;;;;;;5006943;28;20489;-68
2022/08/23 02:11:42;;;;;;;29.70;28.30;;;17.60;74.30;;;;;;5001013;28;20481;-68
2022/08/23 02:14:12;;;;;;;37.70;35.93;;;17.60;74.50;;;;;;5001907;28;20583;-69
2022/08/23 02:16:44;;;;;;;53.43;50.93;;;17.70;74.40;;;;;;5002153;28;20551;-66
2022/08/23 02:19:14;;;;;;;32.37;30.83;;;17.70;74.40;;;;;;5005634;28;20464;-66
2022/08/23 02:21:42;;;;;;;32.37;30.47;;;17.60;74.70;;;;;;5001544;28;20489;-66
2022/08/23 02:24:11;;;;;;;31.60;30.00;;;17.50;75.00;;;;;;5003853;28;20491;-66
2022/08/23 02:26:51;;;;;;;32.70;31.10;;;17.50;74.90;;;;;;5001654;28;20460;-66
2022/08/23 02:29:21;;;;;;;31.13;29.60;;;17.50;74.50;;;;;;4999373;28;20658;-66
2022/08/23 02:31:49;;;;;;;31.60;30.00;;;17.40;74.50;;;;;;4999941;28;20513;-66
2022/08/23 02:34:18;;;;;;;31.03;29.43;;;17.40;74.70;;;;;;5002478;28;20547;-66
2022/08/23 02:36:45;;;;;;;31.60;30.00;;;17.40;74.70;;;;;;5004514;28;20877;-66
2022/08/23 02:39:16;;;;;;;30.23;28.70;;;17.40;74.50;;;;;;5007042;28;20457;-66
2022/08/23 02:41:44;;;;;;;32.00;30.50;;;17.40;74.50;;;;;;5005080;28;20531;-66
2022/08/23 02:44:11;;;;;;;32.17;30.57;;;17.40;74.40;;;;;;5003363;28;20514;-66
2022/08/23 02:46:38;;;;;;;30.53;29.13;;;17.40;74.30;;;;;;5005558;28;20471;-66
2022/08/23 02:49:07;;;;;;;33.17;31.67;;;17.40;74.20;;;;;;5006603;28;20564;-66
2022/08/23 02:51:34;;;;;;;33.60;32.00;;;17.40;74.30;;;;;;5002934;28;20670;-66
2022/08/23 02:54:01;;;;;;;49.57;47.13;;;17.30;74.50;;;;;;5005948;28;21136;-66
2022/08/23 02:56:29;;;;;;;37.77;35.77;;;17.30;74.50;;;;;;5004709;28;20469;-66
2022/08/23 02:58:56;;;;;;;30.50;28.90;;;17.40;74.10;;;;;;5006516;28;20906;-65
2022/08/23 03:01:26;;;;;;;31.47;29.87;;;17.40;74.00;;;;;;5001953;28;20578;-65
2022/08/23 03:03:53;;;;;;;32.00;30.40;;;17.50;74.00;;;;;;5006776;28;20461;-65
2022/08/23 03:06:22;;;;;;;33.23;31.53;;;17.50;73.90;;;;;;5009899;28;20543;-65
2022/08/23 03:08:49;;;;;;;39.37;37.37;;;17.40;74.00;;;;;;5011340;28;20464;-65
2022/08/23 03:11:20;;;;;;;65.63;62.27;;;17.40;74.20;;;;;;5008515;28;20470;-65
2022/08/23 03:13:47;;;;;;;48.60;46.23;;;17.40;73.90;;;;;;5008697;28;20569;-65
2022/08/23 03:16:15;;;;;;;31.90;30.37;;;17.50;73.90;;;;;;5009548;28;20662;-65
2022/08/23 03:18:43;;;;;;;30.27;28.87;;;17.50;73.80;;;;;;5009876;28;20464;-65
2022/08/23 03:21:11;;;;;;;30.60;29.00;;;17.40;73.70;;;;;;5002973;28;20483;-65
2022/08/23 03:23:40;;;;;;;35.03;33.43;;;17.40;73.70;;;;;;5011704;28;20498;-65
2022/08/23 03:26:09;;;;;;;41.33;39.33;;;17.30;73.90;;;;;;5009965;28;20563;-65
2022/08/23 03:28:38;;;;;;;41.17;39.20;;;17.30;74.00;;;;;;5008457;28;20554;-65
2022/08/23 03:31:05;;;;;;;34.17;32.30;;;17.30;74.00;;;;;;5003579;28;20485;-65
2022/08/23 03:33:33;;;;;;;41.27;39.27;;;17.30;74.30;;;;;;5011193;28;20526;-65
2022/08/23 03:36:01;;;;;;;52.50;50.10;;;17.30;74.40;;;;;;5009014;28;20563;-65
2022/08/23 03:38:28;;;;;;;34.93;33.23;;;17.30;74.60;;;;;;5011147;28;20590;-65
2022/08/23 03:40:57;;;;;;;60.50;57.63;;;17.30;74.70;;;;;;5007852;28;20937;-66
2022/08/23 03:43:24;;;;;;;35.97;34.17;;;17.30;74.40;;;;;;5008257;28;20498;-65
2022/08/23 03:45:51;;;;;;;46.80;44.40;;;17.30;74.40;;;;;;5005231;28;20497;-68
2022/08/23 03:48:18;;;;;;;32.67;31.00;;;17.30;74.40;;;;;;5008504;28;20460;-69
2022/08/23 03:50:45;;;;;;;37.90;36.10;;;17.30;74.20;;;;;;5008051;28;20472;-68
2022/08/23 03:53:12;;;;;;;30.60;29.10;;;17.30;74.00;;;;;;5008892;28;20463;-67
2022/08/23 03:55:39;;;;;;;39.93;38.10;;;17.20;73.80;;;;;;5010564;28;20462;-68
2022/08/23 03:58:08;;;;;;;30.40;28.90;;;17.20;74.00;;;;;;5005965;28;21006;-67
2022/08/23 04:00:35;;;;;;;41.27;38.63;;;17.20;74.20;;;;;;5007632;28;20571;-68
2022/08/23 04:03:02;;;;;;;48.93;46.47;;;17.20;74.10;;;;;;5009397;28;20459;-68
2022/08/23 04:05:28;;;;;;;41.43;39.63;;;17.10;74.20;;;;;;5009030;28;20550;-68
2022/08/23 04:07:55;;;;;;;55.70;53.10;;;17.10;74.30;;;;;;5006765;28;20539;-69
2022/08/23 04:10:22;;;;;;;57.17;54.33;;;17.10;74.30;;;;;;5006210;28;20562;-68
2022/08/23 04:12:51;;;;;;;48.47;46.10;;;17.00;74.40;;;;;;5008246;28;20560;-67
2022/08/23 04:15:19;;;;;;;39.10;37.10;;;17.00;74.60;;;;;;5009312;28;21041;-67
2022/08/23 04:17:46;;;;;;;42.07;40.13;;;17.00;74.70;;;;;;5007906;28;20542;-68
2022/08/23 04:20:16;;;;;;;34.13;32.53;;;17.00;74.70;;;;;;5007790;28;20562;-67
2022/08/23 04:22:43;;;;;;;39.80;37.80;;;17.00;74.70;;;;;;5005943;28;20945;-67
2022/08/23 04:25:11;;;;;;;36.53;34.80;;;16.90;75.00;;;;;;5010667;28;20977;-68
2022/08/23 04:27:38;;;;;;;40.43;38.60;;;16.90;75.20;;;;;;5004917;28;20468;-68
2022/08/23 04:30:06;;;;;;;42.20;40.33;;;16.90;75.20;;;;;;5006453;28;20502;-68
2022/08/23 04:32:34;;;;;;;62.60;59.63;;;16.90;75.30;;;;;;5007818;28;20482;-68
2022/08/23 04:35:01;;;;;;;37.53;35.93;;;16.90;75.30;;;;;;5009568;28;20901;-70
2022/08/23 04:37:28;;;;;;;39.60;37.80;;;16.90;75.30;;;;;;5005127;28;20574;-69
2022/08/23 04:42:39;;;;;;;64.23;60.83;;;16.90;75.30;;;;;;5003214;28;20474;-67
2022/08/23 04:45:08;;;;;;;39.40;37.50;;;16.90;75.60;;;;;;5008257;28;20492;-68
2022/08/23 04:47:39;;;;;;;36.77;34.90;;;17.00;75.40;;;;;;5005245;28;20486;-68
2022/08/23 04:50:07;;;;;;;53.53;50.93;;;17.00;75.40;;;;;;5007030;28;20455;-68
2022/08/23 04:52:34;;;;;;;35.20;33.33;;;17.00;75.40;;;;;;4998900;28;20562;-68
2022/08/23 04:55:01;;;;;;;56.97;53.87;;;17.00;75.40;;;;;;5009264;28;20539;-67
2022/08/23 04:57:28;;;;;;;44.17;41.93;;;17.00;75.40;;;;;;4995936;28;21041;-69
2022/08/23 04:59:55;;;;;;;51.27;48.70;;;17.10;75.30;;;;;;5008367;28;20460;-67
2022/08/23 05:02:22;;;;;;;44.03;41.63;;;17.10;75.20;;;;;;5006145;28;20576;-68
2022/08/23 05:04:50;;;;;;;53.80;51.00;;;17.10;75.10;;;;;;5008805;28;20458;-67
2022/08/23 05:07:17;;;;;;;43.67;41.27;;;17.10;75.00;;;;;;5007662;28;20539;-68
2022/08/23 05:09:44;;;;;;;39.80;37.80;;;17.20;74.50;;;;;;5002821;28;20468;-68
2022/08/23 05:12:11;;;;;;;36.93;35.13;;;17.20;74.60;;;;;;4999442;28;20256;-70
2022/08/23 05:14:38;;;;;;;38.77;36.87;;;17.20;74.80;;;;;;5011247;28;20543;-68
2022/08/23 05:17:05;;;;;;;35.10;33.50;;;17.30;74.20;;;;;;5006550;28;20470;-68
2022/08/23 05:19:32;;;;;;;49.20;46.70;;;17.40;74.10;;;;;;5001721;28;20515;-68
2022/08/23 05:22:01;;;;;;;35.67;33.93;;;17.50;73.80;;;;;;5006321;28;20546;-68
2022/08/23 05:24:27;;;;;;;38.03;36.00;;;17.60;73.40;;;;;;5008647;28;21039;-69
2022/08/23 05:26:54;;;;;;;39.07;37.13;;;17.70;73.30;;;;;;5001553;28;20574;-68
2022/08/23 05:29:21;;;;;;;51.23;48.73;;;17.70;73.00;;;;;;4997462;28;20556;-68
2022/08/23 05:31:48;;;;;;;53.07;50.27;;;17.80;72.70;;;;;;5000135;28;20481;-68
2022/08/23 05:34:15;;;;;;;37.43;35.63;;;17.90;72.60;;;;;;4998315;28;20466;-68
2022/08/23 05:36:42;;;;;;;49.37;47.07;;;18.00;72.30;;;;;;5001122;28;20552;-68
2022/08/23 05:39:11;;;;;;;54.93;52.37;;;18.10;71.80;;;;;;5001709;28;20960;-68
2022/08/23 05:41:39;;;;;;;49.97;47.57;;;18.20;71.60;;;;;;5003332;28;20487;-68
2022/08/23 05:44:06;;;;;;;43.40;41.40;;;18.20;71.40;;;;;;4999537;28;20488;-70
2022/08/23 05:46:33;;;;;;;42.30;40.40;;;18.30;71.20;;;;;;5002693;28;22143;-69
2022/08/23 05:49:00;;;;;;;39.77;37.93;;;18.40;70.90;;;;;;5006627;28;20591;-70
2022/08/23 05:51:29;;;;;;;41.53;39.63;;;18.40;71.10;;;;;;4999424;28;20983;-68
2022/08/23 05:53:58;;;;;;;47.50;45.17;;;18.50;70.50;;;;;;5002818;28;20601;-69
2022/08/23 05:56:30;;;;;;;46.67;44.30;;;18.60;70.50;;;;;;5005516;28;20470;-69
2022/08/23 05:58:59;;;;;;;38.70;36.80;;;18.60;70.30;;;;;;5005881;28;20474;-69
2022/08/23 06:01:28;;;;;;;34.83;33.20;;;18.80;70.50;;;;;;4999021;28;20901;-69
2022/08/23 06:03:55;;;;;;;36.73;34.93;;;18.90;69.70;;;;;;5001986;28;20467;-69
2022/08/23 06:06:22;;;;;;;41.40;39.33;;;19.00;69.40;;;;;;5003287;28;20951;-69
2022/08/23 06:08:49;;;;;;;42.73;40.77;;;19.10;69.30;;;;;;5004240;28;20555;-69
2022/08/23 06:11:18;;;;;;;46.03;44.03;;;19.20;68.80;;;;;;4998681;28;20917;-70
2022/08/23 06:13:48;;;;;;;37.33;35.70;;;19.30;68.30;;;;;;4998445;28;20467;-69
2022/08/23 06:16:17;;;;;;;37.23;35.43;;;19.40;68.30;;;;;;5006941;28;20965;-69
2022/08/23 06:18:45;;;;;;;46.40;44.23;;;19.50;67.90;;;;;;5009864;28;20471;-69
2022/08/23 06:21:14;;;;;;;38.10;36.17;;;19.70;67.40;;;;;;5001691;28;20490;-69
2022/08/23 06:23:42;;;;;;;55.23;52.43;;;19.80;66.80;;;;;;4998946;28;20552;-67
2022/08/23 06:26:13;;;;;;;36.47;34.87;;;19.80;66.80;;;;;;4991684;28;21009;-67
2022/08/23 06:28:41;;;;;;;51.80;49.13;;;19.90;66.40;;;;;;4999906;28;21022;-67
2022/08/23 06:31:10;;;;;;;42.83;40.90;;;20.00;66.20;;;;;;5001588;28;20479;-67
2022/08/23 06:33:38;;;;;;;53.50;50.97;;;20.10;65.80;;;;;;5006408;28;20461;-67
2022/08/23 06:36:07;;;;;;;39.17;37.23;;;20.20;65.70;;;;;;5007356;28;20529;-66
2022/08/23 06:38:35;;;;;;;36.17;34.37;;;20.20;65.70;;;;;;4998112;28;20903;-67
2022/08/23 06:41:05;;;;;;;51.70;49.10;;;20.40;65.40;;;;;;5000518;28;20596;-68
2022/08/23 06:43:33;;;;;;;49.37;46.73;;;20.60;65.10;;;;;;5002222;28;20604;-69
2022/08/23 06:46:10;;;;;;;52.10;49.40;;;20.60;64.40;;;;;;5001047;28;20593;-68
2022/08/23 06:48:37;;;;;;;38.17;35.97;;;20.70;63.90;;;;;;5001612;28;21019;-67
2022/08/23 06:51:10;;;;;;;38.10;36.20;;;20.90;63.30;;;;;;5003704;28;20485;-67
2022/08/23 06:53:37;;;;;;;52.43;49.73;;;20.80;63.60;;;;;;4997859;28;20463;-67
2022/08/23 06:56:04;;;;;;;37.10;35.10;;;20.90;63.60;;;;;;5001347;28;20468;-66
2022/08/23 06:58:31;;;;;;;41.90;40.00;;;21.10;63.40;;;;;;5001030;28;20574;-66
2022/08/23 07:01:11;;;;;;;38.97;36.97;;;21.20;63.00;;;;;;5001447;28;20478;-66
2022/08/23 07:03:38;;;;;;;46.77;44.30;;;21.30;62.60;;;;;;5001721;28;20473;-66
2022/08/23 07:06:06;;;;;;;46.00;43.57;;;21.40;62.40;;;;;;5002339;28;20553;-66
2022/08/23 07:08:33;;;;;;;38.37;36.17;;;21.60;62.00;;;;;;5005858;28;20839;-66
2022/08/23 07:11:00;;;;;;;50.30;47.67;;;21.70;61.70;;;;;;5001451;28;20576;-66
2022/08/23 07:13:27;;;;;;;50.70;47.80;;;21.80;61.80;;;;;;5005007;28;20547;-66
2022/08/23 07:15:58;;;;;;;45.47;43.10;;;21.90;61.30;;;;;;5006083;28;20455;-66
2022/08/23 07:18:27;;;;;;;38.67;36.53;;;22.00;61.30;;;;;;5002269;28;20476;-66
2022/08/23 07:20:57;;;;;;;40.23;38.33;;;22.00;61.50;;;;;;4997729;28;20568;-66
2022/08/23 07:23:24;;;;;;;39.20;37.10;;;22.10;61.20;;;;;;5003412;28;21351;-66
2022/08/23 07:25:52;;;;;;;40.80;38.67;;;22.10;61.60;;;;;;5007244;28;20839;-65
2022/08/23 07:28:19;;;;;;;49.90;47.03;;;22.10;61.60;;;;;;4999118;28;20489;-67
2022/08/23 07:30:46;;;;;;;35.67;33.57;;;22.20;61.50;;;;;;5002213;28;20543;-66
2022/08/23 07:33:13;;;;;;;47.90;45.30;;;22.50;61.00;;;;;;5003410;28;20536;-66
2022/08/23 07:35:48;;;;;;;51.87;49.03;;;22.50;60.60;;;;;;4995453;28;20458;-65
2022/08/23 07:38:16;;;;;;;54.07;51.30;;;22.60;60.60;;;;;;5003036;28;20449;-66
2022/08/23 07:40:43;;;;;;;47.03;44.70;;;22.70;60.20;;;;;;5005021;28;20476;-66
2022/08/23 07:43:10;;;;;;;40.20;38.03;;;23.00;59.60;;;;;;4995326;28;20485;-66
2022/08/23 07:45:39;;;;;;;47.47;44.67;;;23.00;59.40;;;;;;4994643;28;20474;-66
2022/08/23 07:48:07;;;;;;;41.73;39.53;;;23.00;59.40;;;;;;5004606;28;20484;-66
2022/08/23 07:50:34;;;;;;;35.70;33.60;;;23.20;59.20;;;;;;4994467;28;20481;-66
2022/08/23 07:53:02;;;;;;;36.47;34.63;;;23.30;59.10;;;;;;5003776;28;20455;-66
2022/08/23 07:55:29;;;;;;;40.73;38.40;;;23.30;58.90;;;;;;5004952;28;20457;-66
2022/08/23 07:57:56;;;;;;;35.07;33.23;;;23.40;58.60;;;;;;5002588;28;20580;-66
2022/08/23 08:00:23;;;;;;;37.87;35.90;;;23.30;58.60;;;;;;5009883;28;20536;-67
2022/08/23 08:02:50;;;;;;;54.63;51.70;;;23.50;58.40;;;;;;5000006;28;20848;-65
2022/08/23 08:05:18;;;;;;;35.73;33.93;;;23.70;58.00;;;;;;4996687;28;20497;-65
2022/08/23 08:07:45;;;;;;;44.50;42.13;;;23.70;57.30;;;;;;5006403;28;20988;-65
2022/08/23 08:10:13;;;;;;;44.40;41.67;;;23.70;57.90;;;;;;5019768;28;20539;-65
2022/08/23 08:12:40;;;;;;;45.17;42.27;;;23.90;57.10;;;;;;5007881;28;20457;-65
2022/08/23 08:15:08;;;;;;;46.80;44.40;;;24.00;56.90;;;;;;5008171;28;20550;-65
2022/08/23 08:17:36;;;;;;;44.13;42.03;;;24.00;56.70;;;;;;4998702;28;20457;-65
2022/08/23 08:20:05;;;;;;;34.83;32.97;;;24.10;56.90;;;;;;5008592;28;20471;-65
2022/08/23 08:22:32;;;;;;;34.90;33.17;;;24.30;56.50;;;;;;5002248;28;20578;-65
2022/08/23 08:25:00;;;;;;;40.97;38.27;;;24.40;56.10;;;;;;5006396;28;20467;-66
2022/08/23 08:27:28;;;;;;;40.77;38.70;;;24.60;55.40;;;;;;5003582;28;20468;-65
2022/08/23 08:29:55;;;;;;;47.20;44.97;;;24.60;55.80;;;;;;5005835;28;20568;-65
2022/08/23 08:32:22;;;;;;;44.87;42.53;;;24.70;55.80;;;;;;5007073;28;20980;-64
2022/08/23 08:34:49;;;;;;;38.97;37.00;;;24.80;55.70;;;;;;4999959;28;20450;-65
2022/08/23 08:37:16;;;;;;;44.37;42.27;;;25.00;55.10;;;;;;5005598;28;20453;-65
2022/08/23 08:39:45;;;;;;;42.70;40.50;;;25.10;54.50;;;;;;5010369;28;20967;-65
2022/08/23 08:42:30;;;;;;;37.00;35.30;;;25.30;53.80;;;;;;5000057;28;21007;-65
2022/08/23 08:45:03;;;;;;;44.83;42.43;;;25.40;53.00;;;;;;5004887;28;20990;-65
2022/08/23 08:47:35;;;;;;;37.63;35.93;;;25.50;52.30;;;;;;5004780;28;20453;-65
2022/08/23 08:50:09;;;;;;;33.30;31.70;;;25.60;49.60;;;;;;5004376;28;20525;-65
2022/08/23 08:52:39;;;;;;;37.77;35.97;;;25.60;49.40;;;;;;5006625;28;20472;-65
2022/08/23 08:55:10;;;;;;;33.27;31.53;;;25.60;50.20;;;;;;5007836;28;20894;-65
2022/08/23 08:57:40;;;;;;;41.87;39.67;;;25.80;50.10;;;;;;5007266;28;20464;-65
2022/08/23 09:00:13;;;;;;;37.63;35.43;;;25.90;50.20;;;;;;5007242;28;20461;-65
2022/08/23 09:02:41;;;;;;;36.80;34.70;;;26.00;50.70;;;;;;5006137;28;20476;-65
2022/08/23 09:05:13;;;;;;;38.53;36.47;;;25.90;52.20;;;;;;5008618;28;20497;-65
2022/08/23 09:07:52;;;;;;;50.73;48.23;;;25.80;52.40;;;;;;5004216;28;21042;-66
2022/08/23 09:10:45;;;;;;;35.43;33.43;;;25.90;52.20;;;;;;5008827;28;20465;-65
2022/08/23 09:13:34;;;;;;;37.23;34.93;;;26.10;51.70;;;;;;5009309;28;20914;-65
2022/08/23 09:16:12;;;;;;;56.70;54.20;;;26.10;51.40;;;;;;4998896;28;20489;-65
2022/08/23 09:18:39;;;;;;;40.03;37.87;;;26.10;52.00;;;;;;5003700;28;20576;-65
2022/08/23 09:21:08;;;;;;;36.20;34.13;;;26.20;51.30;;;;;;4997953;28;20548;-64
2022/08/23 09:23:40;;;;;;;34.67;32.60;;;26.10;52.00;;;;;;5007421;28;20473;-65
2022/08/23 09:26:18;;;;;;;43.60;41.37;;;26.00;52.20;;;;;;5004565;28;20552;-65
2022/08/23 09:28:46;;;;;;;46.33;43.83;;;26.10;50.40;;;;;;5002296;28;20581;-65
2022/08/23 09:31:39;;;;;;;57.43;54.53;;;26.10;49.80;;;;;;5005534;28;20996;-65
2022/08/23 09:34:06;;;;;;;44.77;42.47;;;26.10;50.50;;;;;;5006796;28;21006;-64
2022/08/23 09:36:36;;;;;;;38.70;36.80;;;26.20;50.10;;;;;;5004926;28;20524;-65
2022/08/23 09:39:07;;;;;;;49.30;47.00;;;26.30;49.30;;;;;;5006932;28;20576;-65
2022/08/23 09:41:37;;;;;;;38.63;36.40;;;26.50;48.90;;;;;;5002001;28;20487;-65
2022/08/23 09:44:06;;;;;;;39.40;37.50;;;26.70;48.30;;;;;;5004717;28;20563;-65
2022/08/23 09:46:40;;;;;;;45.60;43.30;;;26.70;47.80;;;;;;4998646;28;20947;-65
2022/08/23 09:49:24;;;;;;;42.00;39.90;;;26.90;46.40;;;;;;5005587;28;20465;-65
2022/08/23 09:51:53;;;;;;;37.20;35.30;;;26.90;45.80;;;;;;5005777;28;20897;-65
2022/08/23 09:54:26;;;;;;;39.47;37.57;;;27.00;45.50;;;;;;4990795;28;21386;-66
2022/08/23 09:56:57;;;;;;;37.20;35.23;;;27.00;46.20;;;;;;4999485;28;20474;-67
2022/08/23 09:59:38;;;;;;;33.70;32.10;;;27.10;46.30;;;;;;5006117;28;20457;-67
2022/08/23 10:02:15;;;;;;;47.33;44.80;;;27.20;45.20;;;;;;4999432;28;20478;-65
2022/08/23 10:04:46;;;;;;;35.77;33.97;;;27.20;44.90;;;;;;4994960;28;20492;-68
2022/08/23 10:07:24;;;;;;;41.73;39.77;;;27.30;44.90;;;;;;5002197;28;20464;-65
2022/08/23 10:09:51;;;;;;;41.70;39.60;;;27.50;44.50;;;;;;5001285;28;20463;-65
2022/08/23 10:12:18;;;;;;;34.60;32.87;;;27.40;44.60;;;;;;4998174;28;20478;-65
2022/08/23 10:14:46;;;;;;;33.30;31.80;;;27.50;44.50;;;;;;5001549;28;20464;-65
2022/08/23 10:17:27;;;;;;;43.53;41.47;;;27.60;44.20;;;;;;5003130;28;20473;-65
2022/08/23 10:20:03;;;;;;;43.20;41.10;;;27.60;44.00;;;;;;5001615;28;20458;-65
2022/08/23 10:22:41;;;;;;;37.30;35.60;;;27.60;44.70;;;;;;4996822;28;20489;-65
2022/08/23 10:25:12;;;;;;;37.67;35.80;;;27.70;44.20;;;;;;4997215;28;20536;-65
2022/08/23 10:30:40;;;;;;;36.13;34.27;;;27.80;43.40;;;;;;5000009;28;20985;-67
2022/08/23 10:33:20;;;;;;;35.80;34.00;;;27.80;42.40;;;;;;5005727;28;20548;-67
2022/08/23 10:35:52;;;;;;;40.00;38.10;;;27.60;42.80;;;;;;4996545;28;20584;-67
2022/08/23 10:38:36;;;;;;;37.50;35.80;;;27.60;42.80;;;;;;4992781;28;21033;-67
2022/08/23 10:41:14;;;;;;;39.47;37.60;;;27.70;43.20;;;;;;4995426;28;20485;-66
2022/08/23 10:43:49;;;;;;;35.63;34.00;;;27.60;42.40;;;;;;4995711;28;21029;-68
2022/08/23 10:46:17;;;;;;;51.43;48.93;;;27.70;43.00;;;;;;4999503;28;20547;-65
2022/08/23 10:48:52;;;;;;;39.40;37.60;;;27.90;42.60;;;;;;4998786;28;20473;-65
2022/08/23 10:51:23;;;;;;;48.93;46.53;;;28.00;42.10;;;;;;5002927;28;20499;-68
2022/08/23 10:53:58;;;;;;;36.70;34.90;;;28.20;42.50;;;;;;5002869;28;20488;-65
2022/08/23 10:56:26;;;;;;;37.47;35.47;;;28.20;42.50;;;;;;4999245;28;20445;-65
2022/08/23 10:58:56;;;;;;;41.23;39.20;;;28.30;42.50;;;;;;5006226;28;20553;-66
2022/08/23 11:01:28;;;;;;;48.60;46.27;;;28.50;42.10;;;;;;5004118;28;20489;-65
2022/08/23 11:04:04;;;;;;;42.17;39.73;;;28.50;40.90;;;;;;5003328;28;20479;-66
2022/08/23 11:06:49;;;;;;;42.73;40.73;;;28.30;40.60;;;;;;5005530;28;20468;-65
2022/08/23 11:09:36;;;;;;;42.00;40.13;;;28.10;40.90;;;;;;5009420;28;20491;-65
2022/08/23 11:12:18;;;;;;;37.57;35.87;;;27.90;41.10;;;;;;5007636;28;20832;-65
2022/08/23 11:14:48;;;;;;;38.63;36.77;;;27.70;41.70;;;;;;5009398;28;20484;-65
2022/08/23 11:17:27;;;;;;;50.83;48.30;;;27.90;41.60;;;;;;5008573;28;20457;-65
2022/08/23 11:19:58;;;;;;;35.17;33.53;;;28.20;40.70;;;;;;5009873;28;20547;-65
2022/08/23 11:22:26;;;;;;;40.77;38.83;;;28.20;40.10;;;;;;5006773;28;20543;-65
2022/08/23 11:25:00;;;;;;;34.70;33.00;;;28.20;40.20;;;;;;5009846;28;21032;-65
2022/08/23 11:27:30;;;;;;;43.73;41.73;;;28.30;40.40;;;;;;5009726;28;20519;-65
2022/08/23 11:29:57;;;;;;;50.97;48.60;;;28.30;39.90;;;;;;5005883;28;20473;-65
2022/08/23 11:32:36;;;;;;;51.67;49.10;;;28.30;40.20;;;;;;5009938;28;21279;-65
2022/08/23 11:35:23;;;;;;;36.53;34.73;;;28.40;40.20;;;;;;5007235;28;20465;-65
2022/08/23 11:38:01;;;;;;;46.57;44.37;;;28.40;40.60;;;;;;5009071;28;21002;-68
2022/08/23 11:40:42;;;;;;;36.10;34.50;;;28.50;40.20;;;;;;5003607;28;20560;-67
2022/08/23 11:43:17;;;;;;;53.53;51.03;;;28.70;39.60;;;;;;5006938;28;20572;-68
2022/08/23 11:45:46;;;;;;;50.20;47.83;;;28.60;40.20;;;;;;5011760;28;20461;-68
2022/08/23 11:48:21;;;;;;;35.87;34.20;;;28.40;40.70;;;;;;5005282;28;20499;-67
2022/08/23 11:51:26;;;;;;;39.63;37.63;;;28.40;41.10;;;;;;5006885;28;20507;-67
2022/08/23 11:54:15;;;;;;;49.40;47.03;;;28.20;40.90;;;;;;5002126;28;20463;-68
2022/08/23 11:56:53;;;;;;;36.93;35.13;;;28.30;40.80;;;;;;4995646;28;20556;-68
2022/08/23 11:59:39;;;;;;;58.10;55.30;;;28.30;41.00;;;;;;5002260;28;20476;-71
2022/08/23 12:02:40;;;;;;;45.37;42.90;;;28.50;40.20;;;;;;5007879;28;20567;-68
2022/08/23 12:05:31;;;;;;;45.70;43.30;;;28.60;40.00;;;;;;5002496;28;20564;-68
2022/08/23 12:08:31;;;;;;;35.00;33.40;;;28.50;40.00;;;;;;5021380;28;20538;-68
2022/08/23 12:11:05;;;;;;;36.43;34.47;;;28.40;40.20;;;;;;5009283;28;20531;-67
2022/08/23 12:14:00;;;;;;;36.17;34.33;;;28.60;39.80;;;;;;5010699;28;20552;-67
2022/08/23 12:16:35;;;;;;;45.93;43.70;;;28.80;39.70;;;;;;4970912;28;20481;-67
2022/08/23 12:19:10;;;;;;;44.63;42.33;;;28.80;39.60;;;;;;5010513;28;20536;-67
2022/08/23 12:21:44;;;;;;;49.60;47.10;;;28.90;39.60;;;;;;5003485;28;20485;-66
2022/08/23 12:24:19;;;;;;;52.30;49.80;;;28.90;39.60;;;;;;5001571;28;20479;-67
2022/08/23 12:26:57;;;;;;;35.27;33.47;;;28.80;40.10;;;;;;5009279;28;20491;-67
2022/08/23 12:29:35;;;;;;;38.20;36.30;;;29.00;39.50;;;;;;5001623;28;20469;-66
2022/08/23 12:32:09;;;;;;;35.00;33.30;;;29.00;39.80;;;;;;5007426;28;20491;-67
2022/08/23 12:34:46;;;;;;;51.40;48.63;;;29.10;39.70;;;;;;4998708;28;20469;-67
2022/08/23 12:37:25;;;;;;;50.37;47.97;;;29.30;39.20;;;;;;5003493;28;21022;-66
2022/08/23 12:39:57;;;;;;;38.37;36.47;;;29.40;39.10;;;;;;5008824;28;20492;-65
2022/08/23 12:42:29;;;;;;;58.17;55.40;;;29.60;38.50;;;;;;4999264;28;20827;-66
2022/08/23 12:45:02;;;;;;;50.10;47.40;;;29.40;38.70;;;;;;5007342;28;20481;-66
2022/08/23 12:47:29;;;;;;;52.47;49.83;;;29.60;38.60;;;;;;5001939;28;20543;-68
2022/08/23 12:50:00;;;;;;;34.37;32.77;;;29.60;38.20;;;;;;5004175;28;20478;-70
2022/08/23 12:52:31;;;;;;;36.33;34.60;;;29.80;38.20;;;;;;4997106;28;20480;-69
2022/08/23 12:54:58;;;;;;;38.10;36.23;;;29.70;38.50;;;;;;5008730;28;20449;-69
2022/08/23 12:57:33;;;;;;;43.10;40.80;;;29.80;38.60;;;;;;4999295;28;20641;-70